Aérodrome :
LOGIN :

S'inscrire | Disclaimer

   EN    FR    IT 

 










Légende :    VFR   VFR Marginal   IFR   IFR Intensif   IFR Très Intensif
Visi : 
Plafond : 
>= 8 km
>= 3000ft
5 à 8 km
1000 à 3000 ft
1500m à 5 km
500 à 1000 ft
800 à 1500m
200 à 500 ft
< 800m
< 200 ft
Symboles :   Orages  Brouillard  Fortes neiges  Fortes précipitations  Vent > 20 kt
SIGMETs :   Divers  Orages  Givrage  Turbulence  Onde Orograph.  Cendres Volcan.






- Altitude de l'aérodrome : 47 ft
- Code IATA : BDS


LIBR - Casale Arpt. Brindisi

DERNIER METAR :
  • 061820Z 11005KT 7000 RA SCT015 BKN025 16/15 Q1021

METARs EXPIRÉS :
  • 061750Z 11004KT 6000 RA SCT015 BKN025 16/15 Q1021
  • 061720Z 08003KT 6000 RA FEW010 BKN025 16/15 Q1021
  • 061650Z VRB02KT 6000 RA SCT010 BKN025 16/15 Q1021
  • 061620Z 14004KT 110V180 6000 RA FEW010 BKN025 15/15 Q1021
  • 061550Z VRB02KT 5000 RA BR FEW010 BKN025 15/15 Q1021

TAF TAF LIBR
Valide du 06 à 18h jusqu'au 07 à 18h UTC


061700Z 0618/0718 VRB04KT 7000 BKN020 BKN040
TEMPO 0618/0622 3000 BR
BECMG 0621/0624 28010KT



MET'MAP, la Météo Aéronautique d'un coup d'oeil ! - Copyright ORBIFLY Décembre 2007 - Disclaimer

ORBIFLY MET'MAP TEAM :

Programmation & Développement : Alexandra Zaïnal
Sur une idée originale de : Baudouin d'Aumeries
Assistance à la programmation : Marc-Olivier Méhu
Soutien technique & logistique : Manuel Goepfert

Contact : metmap@orbifly.com




SOURCES & CREDITS :

   NOAA